Time;durP1;ratioP1;P1;durP2;ratioP2;P2;SDS_P1;SDS_P2;PMS_P1;PMS_P2;Temp;Humidity;BMP_temperature;BMP_pressure;BME280_temperature;BME280_humidity;BME280_pressure;Samples;Min_cycle;Max_cycle;Signal;HPM_P1;HPM_P2
2023/06/28 05:19:25;;;;;;;;;;;;;;;11.82;100.00;99866.03;4929592;29;20030;-84
2023/06/28 05:21:50;;;;;;;;;;;;;;;12.02;100.00;99864.25;4920684;29;20025;-82
2023/06/28 05:24:16;;;;;;;;;;;;;;;11.95;100.00;99865.44;4937793;29;19918;-82
2023/06/28 05:26:41;;;;;;;;;;;;;;;11.97;100.00;99867.13;4937458;29;19929;-82
2023/06/28 05:29:06;;;;;;;;;;;;;;;12.14;100.00;99868.97;4937368;29;19974;-81
2023/06/28 05:31:31;;;;;;;;;;;;;;;12.08;100.00;99869.28;4936058;29;19943;-82
2023/06/28 05:33:57;;;;;;;;;;;;;;;12.10;100.00;99866.53;4937271;29;19926;-85
2023/06/28 05:36:22;;;;;;;;;;;;;;;12.03;100.00;99867.75;4935858;29;19947;-82
2023/06/28 05:38:48;;;;;;;;;;;;;;;12.10;100.00;99872.69;4936927;29;20027;-82
2023/06/28 05:41:14;;;;;;;;;;;;;;;12.12;100.00;99876.13;4937279;29;19958;-82
2023/06/28 05:43:42;;;;;;;;;;;;;;;12.09;100.00;99878.94;4935230;29;20382;-82
2023/06/28 05:46:07;;;;;;;;;;;;;;;12.10;100.00;99878.00;4937008;29;19918;-82
2023/06/28 05:48:32;;;;;;;;;;;;;;;11.95;100.00;99876.06;4935807;29;19967;-82
2023/06/28 05:50:58;;;;;;;;;;;;;;;12.02;100.00;99874.00;4919539;29;19970;-82
2023/06/28 05:53:23;;;;;;;;;;;;;;;11.80;100.00;99875.81;4936966;29;20414;-81
2023/06/28 05:55:49;;;;;;;;;;;;;;;11.80;100.00;99870.53;4936796;29;19972;-82
2023/06/28 05:58:14;;;;;;;;;;;;;;;11.92;100.00;99877.09;4943431;29;19923;-82
2023/06/28 06:00:39;;;;;;;;;;;;;;;11.98;100.00;99881.25;4936908;29;19919;-82
2023/06/28 06:03:04;;;;;;;;;;;;;;;12.10;100.00;99870.03;4935478;29;19926;-82
2023/06/28 06:05:30;;;;;;;;;;;;;;;11.95;100.00;99868.09;4936668;29;19965;-82
2023/06/28 06:07:55;;;;;;;;;;;;;;;12.09;100.00;99876.28;4936672;29;20453;-82
2023/06/28 06:10:20;;;;;;;;;;;;;;;11.88;100.00;99872.81;4936702;29;19926;-82
2023/06/28 06:12:47;;;;;;;;;;;;;;;11.98;100.00;99870.63;4943380;29;19922;-83
2023/06/28 06:15:12;;;;;;;;;;;;;;;11.82;100.00;99876.63;4935847;29;20429;-84
2023/06/28 06:17:38;;;;;;;;;;;;;;;11.72;100.00;99875.31;4934952;29;20070;-84
2023/06/28 06:20:04;;;;;;;;;;;;;;;11.71;100.00;99872.75;4919188;29;19923;-83
2023/06/28 06:22:29;;;;;;;;;;;;;;;11.71;100.00;99880.72;4936376;29;19985;-83
2023/06/28 06:24:55;;;;;;;;;;;;;;;11.74;100.00;99884.09;4936311;29;20382;-84
2023/06/28 06:27:20;;;;;;;;;;;;;;;11.74;100.00;99878.78;4918926;29;20375;-83
2023/06/28 06:29:45;;;;;;;;;;;;;;;11.76;100.00;99887.53;4936359;29;19923;-83
2023/06/28 06:32:10;;;;;;;;;;;;;;;11.81;100.00;99885.53;4934615;29;20430;-83
2023/06/28 06:34:36;;;;;;;;;;;;;;;11.71;100.00;99886.91;4942851;29;20294;-82
2023/06/28 06:37:01;;;;;;;;;;;;;;;11.64;100.00;99886.28;4935976;29;19919;-81
2023/06/28 06:39:26;;;;;;;;;;;;;;;11.81;100.00;99890.84;4936125;29;19919;-82
2023/06/28 06:41:51;;;;;;;;;;;;;;;11.65;100.00;99889.81;4936103;29;19919;-80
2023/06/28 06:44:17;;;;;;;;;;;;;;;11.68;100.00;99889.69;4935991;29;20367;-81
2023/06/28 06:46:42;;;;;;;;;;;;;;;11.64;100.00;99898.72;4917714;29;20354;-80
2023/06/28 06:49:07;;;;;;;;;;;;;;;11.69;100.00;99895.84;4935838;29;19962;-80
2023/06/28 06:51:33;;;;;;;;;;;;;;;11.61;100.00;99897.03;4935248;29;19923;-81
2023/06/28 06:53:58;;;;;;;;;;;;;;;11.63;100.00;99899.63;4935910;29;19957;-80
2023/06/28 06:56:25;;;;;;;;;;;;;;;11.67;100.00;99897.72;4934516;29;20293;-80
2023/06/28 06:58:50;;;;;;;;;;;;;;;11.56;100.00;99899.06;4935761;29;19926;-80
2023/06/28 07:01:15;;;;;;;;;;;;;;;11.63;100.00;99903.16;4935685;29;20350;-80
2023/06/28 07:03:41;;;;;;;;;;;;;;;11.67;100.00;99903.88;4917233;29;19926;-80
2023/06/28 07:06:06;;;;;;;;;;;;;;;11.59;100.00;99906.03;4935541;29;19950;-80
2023/06/28 07:08:33;;;;;;;;;;;;;;;11.66;100.00;99894.19;4935593;29;19948;-80
2023/06/28 07:10:58;;;;;;;;;;;;;;;11.65;100.00;99900.44;4935560;29;20009;-81
2023/06/28 07:13:24;;;;;;;;;;;;;;;11.54;100.00;99895.63;4918633;29;19974;-81
2023/06/28 07:15:49;;;;;;;;;;;;;;;11.66;100.00;99893.34;4934027;29;19935;-80
2023/06/28 07:18:15;;;;;;;;;;;;;;;11.67;100.00;99895.91;4934025;29;19929;-80
2023/06/28 07:20:40;;;;;;;;;;;;;;;11.71;100.00;99894.84;4935256;29;19942;-80
2023/06/28 07:23:05;;;;;;;;;;;;;;;11.96;100.00;99899.06;4935343;29;19919;-80
2023/06/28 08:02:04;;;;;;;;;;;;;;;11.70;100.00;99887.81;5814989;23;19934;-87
2023/06/28 08:04:30;;;;;;;;;;;;;;;11.85;100.00;99885.38;4953170;28;19926;-88
2023/06/28 08:06:55;;;;;;;;;;;;;;;11.69;100.00;99890.53;4963518;28;19981;-87
2023/06/28 08:09:20;;;;;;;;;;;;;;;11.56;100.00;99884.94;4963989;28;20429;-88
2023/06/28 08:11:46;;;;;;;;;;;;;;;11.63;100.00;99889.91;4963525;28;19919;-91
2023/06/28 08:14:11;;;;;;;;;;;;;;;11.52;100.00;99894.84;4963362;28;19922;-87
2023/06/28 08:16:36;;;;;;;;;;;;;;;11.57;100.00;99884.88;4962026;28;19976;-87
2023/06/28 08:19:01;;;;;;;;;;;;;;;11.54;100.00;99882.34;4963865;28;19922;-87
2023/06/28 08:21:27;;;;;;;;;;;;;;;11.49;100.00;99889.66;4963253;28;20325;-86
2023/06/28 08:23:52;;;;;;;;;;;;;;;11.54;100.00;99886.81;4963132;28;19964;-88
2023/06/28 08:26:19;;;;;;;;;;;;;;;11.61;100.00;99880.28;4963158;28;20326;-87
2023/06/28 08:28:44;;;;;;;;;;;;;;;11.53;100.00;99887.72;4945880;28;19926;-87
2023/06/28 08:31:10;;;;;;;;;;;;;;;11.47;100.00;99891.50;4962123;28;20157;-89
2023/06/28 08:33:35;;;;;;;;;;;;;;;11.52;100.00;99894.84;4963269;28;20274;-88
2023/06/28 08:36:00;;;;;;;;;;;;;;;11.90;100.00;99899.31;4945964;28;19962;-88
2023/06/28 08:38:26;;;;;;;;;;;;;;;11.88;100.00;99894.06;4964256;28;20008;-88
2023/06/28 08:40:51;;;;;;;;;;;;;;;12.69;100.00;99901.75;4963287;28;20384;-86
2023/06/28 08:43:19;;;;;;;;;;;;;;;14.23;100.00;99891.00;4963057;28;19968;-84
2023/06/28 08:45:44;;;;;;;;;;;;;;;15.41;100.00;99877.88;4962312;28;20434;-85
2023/06/28 08:48:11;;;;;;;;;;;;;;;15.76;100.00;99881.97;4962055;28;20005;-89
2023/06/28 08:50:56;;;;;;;;;;;;;;;14.83;100.00;99887.56;4963294;28;19922;-90
2023/06/28 08:53:29;;;;;;;;;;;;;;;13.88;100.00;99892.94;4893709;29;19979;-91
2023/06/28 08:56:06;;;;;;;;;;;;;;;13.49;100.00;99889.69;4894231;29;19920;-91
2023/06/28 08:58:36;;;;;;;;;;;;;;;13.24;100.00;99885.66;4894218;29;19967;-91
2023/06/28 09:01:32;;;;;;;;;;;;;;;13.11;100.00;99881.88;4893055;29;20055;-92
2023/06/28 09:04:21;;;;;;;;;;;;;;;12.96;100.00;99875.56;4891769;29;19923;-92
2023/06/28 09:09:53;;;;;;;;;;;;;;;12.95;100.00;99872.97;4879371;29;19966;-89
2023/06/28 09:12:21;;;;;;;;;;;;;;;12.84;100.00;99877.06;4897034;29;19919;-91
2023/06/28 09:24:02;;;;;;;;;;;;;;;;;;;;;
2023/06/28 09:26:31;;;;;;;;;;;;;;;12.79;100.00;99879.06;4823098;29;19937;-91
2023/06/28 09:48:40;;;;;;;;;;;;;;;12.82;100.00;99872.75;4768297;30;19926;-91
2023/06/28 09:51:44;;;;;;;;;;;;;;;12.76;100.00;99883.69;4768736;30;19957;-90
2023/06/28 10:14:33;;;;;;;;;;;;;;;12.58;100.00;99865.06;4933770;29;19930;-91
2023/06/28 10:17:12;;;;;;;;;;;;;;;;;;;;;
2023/06/28 10:27:10;;;;;;;;;;;;;;;;;;;;;
2023/06/28 10:32:56;;;;;;;;;;;;;;;12.67;100.00;99859.28;4957961;28;20290;-88
2023/06/28 10:38:30;;;;;;;;;;;;;;;;;;;;;
2023/06/28 10:41:24;;;;;;;;;;;;;;;12.62;100.00;99855.13;4993955;28;19932;-94
2023/06/28 10:44:01;;;;;;;;;;;;;;;12.62;100.00;99856.00;4976493;28;20379;-89
2023/06/28 10:46:36;;;;;;;;;;;;;;;;;;;;;
2023/06/28 10:49:29;;;;;;;;;;;;;;;14.16;100.00;99849.66;4993226;28;19922;-91
2023/06/28 10:52:19;;;;;;;;;;;;;;;13.38;100.00;99858.31;4992469;28;20327;-92
2023/06/28 10:58:55;;;;;;;;;;;;;;;12.99;100.00;99855.94;4912423;29;19926;-91
2023/06/28 11:05:20;;;;;;;;;;;;;;;;;;;;;
2023/06/28 11:30:27;;;;;;;;;;;;;;;12.84;100.00;99842.50;4811781;29;19921;-90
2023/06/28 11:33:22;;;;;;;;;;;;;;;12.68;100.00;99841.53;4826317;29;19930;-92
2023/06/28 11:36:09;;;;;;;;;;;;;;;;;;;;;
2023/06/28 11:42:12;;;;;;;;;;;;;;;;;;;;;
2023/06/28 11:44:49;;;;;;;;;;;;;;;12.75;100.00;99834.09;4875546;29;19924;-91
2023/06/28 11:47:21;;;;;;;;;;;;;;;12.67;100.00;99823.88;4883701;29;19919;-89
2023/06/28 11:58:56;;;;;;;;;;;;;;;;;;;;;
2023/06/28 12:01:34;;;;;;;;;;;;;;;;;;;;;
2023/06/28 12:04:25;;;;;;;;;;;;;;;;;;;;;
2023/06/28 12:07:04;;;;;;;;;;;;;;;12.76;100.00;99809.25;4992092;28;19944;-90
2023/06/28 12:09:32;;;;;;;;;;;;;;;13.04;100.00;99814.00;4992027;28;19922;-92
2023/06/28 12:12:05;;;;;;;;;;;;;;;12.98;100.00;99809.84;4992656;28;20381;-91
2023/06/28 12:14:39;;;;;;;;;;;;;;;12.92;100.00;99812.81;4991949;28;20382;-91
2023/06/28 12:17:04;;;;;;;;;;;;;;;13.11;100.00;99807.41;4973740;28;19922;-90
2023/06/28 12:19:35;;;;;;;;;;;;;;;12.96;100.00;99800.25;4975090;28;19968;-90
2023/06/28 12:22:11;;;;;;;;;;;;;;;12.97;100.00;99801.94;4974239;28;19928;-90
2023/06/28 12:24:49;;;;;;;;;;;;;;;;;;;;;
2023/06/28 12:27:35;;;;;;;;;;;;;;;13.20;100.00;99808.72;4970970;28;19924;-91
2023/06/28 12:30:07;;;;;;;;;;;;;;;13.21;100.00;99789.16;4950541;28;19985;-91
2023/06/28 12:32:38;;;;;;;;;;;;;;;13.05;100.00;99797.97;4969289;28;20413;-91
2023/06/28 12:35:06;;;;;;;;;;;;;;;13.06;100.00;99801.47;4970350;28;19945;-90
2023/06/28 12:37:42;;;;;;;;;;;;;;;13.16;100.00;99791.19;4969936;28;19942;-93
2023/06/28 12:40:08;;;;;;;;;;;;;;;13.12;100.00;99781.69;4954255;28;20029;-91
2023/06/28 12:42:57;;;;;;;;;;;;;;;13.16;100.00;99776.13;4956594;28;19996;-92
2023/06/28 12:45:25;;;;;;;;;;;;;;;13.04;100.00;99784.75;4956710;28;20008;-89
2023/06/28 12:47:53;;;;;;;;;;;;;;;13.18;100.00;99784.88;4969371;28;19918;-94
2023/06/28 12:50:29;;;;;;;;;;;;;;;13.00;100.00;99781.41;4974053;28;19918;-94
2023/06/28 12:53:21;;;;;;;;;;;;;;;13.13;100.00;99784.25;4949650;28;19918;-92
2023/06/28 12:55:49;;;;;;;;;;;;;;;13.40;100.00;99789.91;4960276;28;19937;-90
2023/06/28 12:58:15;;;;;;;;;;;;;;;13.15;100.00;99779.72;4978788;28;19918;-91
2023/06/28 13:00:57;;;;;;;;;;;;;;;;;;;;;
2023/06/28 13:03:33;;;;;;;;;;;;;;;;;;;;;
2023/06/28 13:06:09;;;;;;;;;;;;;;;13.08;100.00;99767.66;4995575;28;19928;-91
2023/06/28 13:11:22;;;;;;;;;;;;;;;13.12;100.00;99769.22;4965374;23;20358;-93
2023/06/28 13:13:55;;;;;;;;;;;;;;;13.04;100.00;99771.44;4939692;28;19918;-91
2023/06/28 13:16:20;;;;;;;;;;;;;;;13.11;100.00;99772.81;4956116;28;19973;-90
2023/06/28 13:18:46;;;;;;;;;;;;;;;13.15;100.00;99766.41;4956616;28;19922;-90
2023/06/28 13:21:13;;;;;;;;;;;;;;;13.20;100.00;99761.69;4939407;29;19920;-90
2023/06/28 13:23:39;;;;;;;;;;;;;;;13.07;100.00;99760.66;4939312;29;19922;-90
2023/06/28 13:26:14;;;;;;;;;;;;;;;;;;;;;
2023/06/28 13:28:44;;;;;;;;;;;;;;;13.15;100.00;99760.25;4956634;28;19918;-89
2023/06/28 13:31:12;;;;;;;;;;;;;;;13.27;100.00;99757.75;4955135;28;19922;-89
2023/06/28 13:33:40;;;;;;;;;;;;;;;13.09;100.00;99756.09;4939008;29;19915;-91
2023/06/28 13:36:37;;;;;;;;;;;;;;;13.11;100.00;99754.19;4938577;28;20285;-93
2023/06/28 13:39:03;;;;;;;;;;;;;;;13.20;100.00;99759.03;4912215;28;20084;-91
2023/06/28 13:41:28;;;;;;;;;;;;;;;13.27;100.00;99747.13;4956361;28;20351;-90
2023/06/28 13:43:53;;;;;;;;;;;;;;;13.22;100.00;99745.66;4938912;28;20460;-88
2023/06/28 13:46:19;;;;;;;;;;;;;;;13.07;100.00;99744.69;4955199;28;19923;-90
2023/06/28 13:49:02;;;;;;;;;;;;;;;13.15;100.00;99739.81;4956304;28;19919;-94
2023/06/28 13:51:27;;;;;;;;;;;;;;;13.46;100.00;99740.81;4939751;29;20018;-89
2023/06/28 13:53:54;;;;;;;;;;;;;;;13.21;100.00;99733.28;4956062;28;20005;-88
2023/06/28 13:56:30;;;;;;;;;;;;;;;13.25;100.00;99732.19;4956126;28;19925;-92
2023/06/28 13:58:55;;;;;;;;;;;;;;;13.14;100.00;99732.75;4938686;28;19929;-92
2023/06/28 14:01:24;;;;;;;;;;;;;;;13.19;100.00;99732.50;4937377;29;19918;-91
2023/06/28 14:03:51;;;;;;;;;;;;;;;13.18;100.00;99726.34;4955925;28;19926;-91
2023/06/28 14:06:27;;;;;;;;;;;;;;;;;;;;;
2023/06/28 14:08:55;;;;;;;;;;;;;;;13.48;100.00;99741.56;4955873;28;19918;-91
2023/06/28 14:11:43;;;;;;;;;;;;;;;13.31;100.00;99736.31;4938436;29;19958;-93
2023/06/28 14:14:23;;;;;;;;;;;;;;;;;;;;;
2023/06/28 14:16:59;;;;;;;;;;;;;;;13.22;100.00;99737.66;4953766;29;19922;-92
2023/06/28 14:19:44;;;;;;;;;;;;;;;13.23;100.00;99729.59;4938464;29;20364;-93
2023/06/28 14:22:15;;;;;;;;;;;;;;;13.20;100.00;99734.22;4954613;29;19930;-92
2023/06/28 14:27:46;;;;;;;;;;;;;;;13.38;100.00;99732.38;4840346;29;19975;-91
2023/06/28 14:30:23;;;;;;;;;;;;;;;13.21;100.00;99723.50;4838338;29;20039;-91
2023/06/28 14:33:10;;;;;;;;;;;;;;;13.35;100.00;99719.25;4913017;29;19977;-89
2023/06/28 14:38:40;;;;;;;;;;;;;;;14.09;100.00;99712.41;4870797;29;20372;-90
2023/06/28 14:41:13;;;;;;;;;;;;;;;12.83;100.00;99715.81;4934513;29;19922;-90
2023/06/28 14:43:38;;;;;;;;;;;;;;;12.34;100.00;99718.38;4950707;28;19922;-90
2023/06/28 14:46:09;;;;;;;;;;;;;;;12.22;100.00;99717.19;4952568;28;20388;-90
2023/06/28 14:48:37;;;;;;;;;;;;;;;12.07;100.00;99710.84;4934480;29;19926;-91
2023/06/28 14:51:07;;;;;;;;;;;;;;;11.98;100.00;99708.66;4953699;28;19978;-91
2023/06/28 14:53:43;;;;;;;;;;;;;;;;;;;;;
2023/06/28 14:59:26;;;;;;;;;;;;;;;11.84;100.00;99704.00;4981100;23;19949;-91
2023/06/28 15:01:51;;;;;;;;;;;;;;;11.79;100.00;99712.19;4934695;28;20294;-92
2023/06/28 15:05:01;;;;;;;;;;;;;;;;;;;;;
2023/06/28 15:07:56;;;;;;;;;;;;;;;;;;;;;
2023/06/28 15:11:00;;;;;;;;;;;;;;;;;;;;;
2023/06/28 15:14:07;;;;;;;;;;;;;;;11.64;100.00;99703.16;4972871;28;19932;-89
2023/06/28 15:16:47;;;;;;;;;;;;;;;;;;;;;
2023/06/28 15:22:44;;;;;;;;;;;;;;;11.56;100.00;99697.38;4894727;29;19927;-92
2023/06/28 15:25:11;;;;;;;;;;;;;;;11.59;100.00;99689.28;4892617;29;19923;-89
2023/06/28 15:27:41;;;;;;;;;;;;;;;11.61;100.00;99702.47;4895356;29;19923;-89
2023/06/28 15:30:16;;;;;;;;;;;;;;;11.65;100.00;99704.06;4880533;29;19934;-88
2023/06/28 15:32:50;;;;;;;;;;;;;;;11.56;100.00;99699.19;4892711;28;19926;-90
2023/06/28 15:38:42;;;;;;;;;;;;;;;;;;;;;
2023/06/28 15:41:16;;;;;;;;;;;;;;;11.61;100.00;99697.16;4905696;29;20377;-95
2023/06/28 15:44:04;;;;;;;;;;;;;;;11.77;100.00;99698.13;4905995;29;19951;-94
2023/06/28 15:47:01;;;;;;;;;;;;;;;11.52;100.00;99697.59;4965494;28;19918;-94
2023/06/28 15:50:03;;;;;;;;;;;;;;;;;;;;;
2023/06/28 15:55:53;;;;;;;;;;;;;;;11.59;100.00;99688.41;4950860;28;19929;-92
2023/06/28 16:02:02;;;;;;;;;;;;;;;11.84;100.00;99679.25;4949999;28;19918;-93
2023/06/28 16:37:17;;;;;;;;;;;;;;;11.79;100.00;99652.91;4700714;30;20026;-92
2023/06/28 16:42:51;;;;;;;;;;;;;;;11.82;100.00;99652.75;4691074;30;19931;-89
2023/06/28 16:51:26;;;;;;;;;;;;;;;;;;;;;
2023/06/28 16:57:36;;;;;;;;;;;;;;;;;;;;;
2023/06/28 17:00:04;;;;;;;;;;;;;;;11.90;100.00;99670.97;4860376;29;19931;-90
2023/06/28 17:02:48;;;;;;;;;;;;;;;12.05;100.00;99670.25;4953568;28;19930;-89
2023/06/28 17:05:46;;;;;;;;;;;;;;;;;;;;;
2023/06/28 17:08:32;;;;;;;;;;;;;;;;;;;;;
2023/06/28 17:11:11;;;;;;;;;;;;;;;;;;;;;
2023/06/28 17:13:42;;;;;;;;;;;;;;;12.04;100.00;99671.16;4995776;28;20276;-89
2023/06/28 17:16:09;;;;;;;;;;;;;;;11.72;100.00;99667.44;4976727;28;20008;-89
2023/06/28 17:18:39;;;;;;;;;;;;;;;11.71;100.00;99666.59;4995743;28;19921;-89
2023/06/28 17:21:08;;;;;;;;;;;;;;;11.94;100.00;99667.28;4977976;28;20455;-92
2023/06/28 17:24:12;;;;;;;;;;;;;;;;;;;;;
2023/06/28 17:32:46;;;;;;;;;;;;;;;11.88;100.00;99663.09;4931776;28;19919;-89
2023/06/28 17:38:18;;;;;;;;;;;;;;;12.00;100.00;99664.31;4962936;28;19918;-91
2023/06/28 17:43:11;;;;;;;;;;;;;;;11.77;100.00;99666.25;4964004;28;19950;-90
2023/06/28 17:46:09;;;;;;;;;;;;;;;;;;;;;
2023/06/28 17:48:38;;;;;;;;;;;;;;;12.06;100.00;99669.31;4962268;28;19926;-89
2023/06/28 17:51:11;;;;;;;;;;;;;;;11.95;100.00;99667.19;4962968;28;20356;-90
2023/06/28 17:54:00;;;;;;;;;;;;;;;11.95;100.00;99672.50;4946238;28;19928;-90
2023/06/28 17:56:30;;;;;;;;;;;;;;;11.86;100.00;99669.44;4965244;28;19930;-90
2023/06/28 17:58:58;;;;;;;;;;;;;;;11.89;100.00;99662.16;4964150;28;19953;-90
2023/06/28 18:01:31;;;;;;;;;;;;;;;11.98;100.00;99668.81;4947432;28;19922;-89
2023/06/28 18:04:07;;;;;;;;;;;;;;;12.05;100.00;99664.94;4964998;28;20440;-90
2023/06/28 18:06:37;;;;;;;;;;;;;;;11.85;100.00;99660.56;4955831;28;19941;-90
2023/06/28 18:12:32;;;;;;;;;;;;;;;12.05;100.00;99667.59;4944847;28;19918;-90
2023/06/28 18:15:16;;;;;;;;;;;;;;;;;;;;;
2023/06/28 18:21:00;;;;;;;;;;;;;;;12.96;100.00;99684.09;4966543;28;19922;-91
2023/06/28 18:23:31;;;;;;;;;;;;;;;12.63;100.00;99676.97;4947252;28;19922;-89
2023/06/28 18:25:59;;;;;;;;;;;;;;;12.33;100.00;99679.44;4948758;28;20381;-92
2023/06/28 18:28:41;;;;;;;;;;;;;;;12.45;100.00;99684.13;4964139;28;19950;-91
2023/06/28 18:31:09;;;;;;;;;;;;;;;12.12;100.00;99682.25;4954005;28;19925;-88
2023/06/28 18:34:06;;;;;;;;;;;;;;;12.31;100.00;99684.81;4964617;28;19922;-90
2023/06/28 18:36:25;;;;;;;;;;;;;;;12.11;100.00;99679.69;4962593;28;20012;-89
2023/06/28 18:39:17;;;;;;;;;;;;;;;;;;;;;
2023/06/28 18:41:43;;;;;;;;;;;;;;;12.21;100.00;99675.63;4963661;28;20362;-89
2023/06/28 18:44:08;;;;;;;;;;;;;;;12.10;100.00;99680.63;4964492;28;20032;-89
2023/06/28 18:46:37;;;;;;;;;;;;;;;12.67;100.00;99680.34;4944791;28;19928;-89
2023/06/28 18:49:04;;;;;;;;;;;;;;;13.12;100.00;99678.78;4945120;28;20397;-84
2023/06/28 18:51:35;;;;;;;;;;;;;;;13.31;100.00;99685.75;4947164;28;19922;-86
2023/06/28 18:56:46;;;;;;;;;;;;;;;12.66;100.00;99679.47;4988112;23;19926;-89
2023/06/28 18:59:16;;;;;;;;;;;;;;;12.45;100.00;99677.97;4974728;28;19964;-90
2023/06/28 19:01:43;;;;;;;;;;;;;;;12.30;100.00;99680.47;4975080;28;19941;-89
2023/06/28 19:04:12;;;;;;;;;;;;;;;12.32;100.00;99675.09;4991947;28;20289;-91
2023/06/28 19:06:40;;;;;;;;;;;;;;;12.33;100.00;99679.44;4991384;28;19940;-87
2023/06/28 19:09:38;;;;;;;;;;;;;;;;;;;;;
2023/06/28 19:12:27;;;;;;;;;;;;;;;;;;;;;
2023/06/28 19:15:10;;;;;;;;;;;;;;;;;;;;;
2023/06/28 19:17:45;;;;;;;;;;;;;;;12.33;100.00;99684.75;4991487;28;19922;-90
2023/06/28 19:20:44;;;;;;;;;;;;;;;;;;;;;
2023/06/28 19:23:10;;;;;;;;;;;;;;;12.35;100.00;99688.22;4989007;28;20280;-89
2023/06/28 19:25:38;;;;;;;;;;;;;;;12.33;100.00;99690.94;4975585;28;20020;-89
2023/06/28 19:28:06;;;;;;;;;;;;;;;12.37;100.00;99686.31;4975689;28;19914;-87
2023/06/28 19:30:35;;;;;;;;;;;;;;;12.34;100.00;99684.66;4973935;28;19928;-90
2023/06/28 19:33:33;;;;;;;;;;;;;;;;;;;;;
2023/06/28 19:36:08;;;;;;;;;;;;;;;;;;;;;
2023/06/28 19:38:39;;;;;;;;;;;;;;;12.23;100.00;99683.53;4993211;28;19918;-88
2023/06/28 19:41:43;;;;;;;;;;;;;;;;;;;;;
2023/06/28 19:46:55;;;;;;;;;;;;;;;12.50;100.00;99675.91;4976698;28;19945;-89
2023/06/28 19:49:51;;;;;;;;;;;;;;;;;;;;;
2023/06/28 19:52:26;;;;;;;;;;;;;;;;;;;;;
2023/06/28 20:01:08;;;;;;;;;;;;;;;;;;;;;
2023/06/28 20:06:22;;;;;;;;;;;;;;;12.48;100.00;99683.13;4965307;28;20318;-89
2023/06/28 20:11:55;;;;;;;;;;;;;;;12.35;100.00;99690.88;4890988;29;19971;-88
2023/06/28 20:14:33;;;;;;;;;;;;;;;;;;;;;
2023/06/28 20:17:16;;;;;;;;;;;;;;;;;;;;;
2023/06/28 20:19:42;;;;;;;;;;;;;;;12.31;100.00;99686.63;4932457;29;20349;-85
2023/06/28 20:22:33;;;;;;;;;;;;;;;12.31;100.00;99689.28;4931363;29;19923;-91
2023/06/28 20:28:40;;;;;;;;;;;;;;;;;;;;;
2023/06/28 20:31:26;;;;;;;;;;;;;;;;;;;;;
2023/06/28 20:43:17;;;;;;;;;;;;;;;;;;;;;
2023/06/28 20:45:59;;;;;;;;;;;;;;;;;;;;;
2023/06/28 20:48:54;;;;;;;;;;;;;;;;;;;;;
2023/06/28 20:51:50;;;;;;;;;;;;;;;;;;;;;
2023/06/28 20:54:23;;;;;;;;;;;;;;;12.34;100.00;99699.75;4968825;28;19928;-88
2023/06/28 20:57:21;;;;;;;;;;;;;;;;;;;;;
2023/06/28 21:06:10;;;;;;;;;;;;;;;;;;;;;
2023/06/28 21:11:56;;;;;;;;;;;;;;;12.30;100.00;99700.84;4896415;29;20014;-89
2023/06/28 21:14:54;;;;;;;;;;;;;;;;;;;;;
2023/06/28 21:17:53;;;;;;;;;;;;;;;;;;;;;
2023/06/28 21:20:41;;;;;;;;;;;;;;;;;;;;;
2023/06/28 21:23:37;;;;;;;;;;;;;;;;;;;;;
2023/06/28 21:26:44;;;;;;;;;;;;;;;;;;;;;
2023/06/28 21:29:11;;;;;;;;;;;;;;;12.28;100.00;99708.91;4970603;28;19922;-89
2023/06/28 21:31:37;;;;;;;;;;;;;;;12.52;100.00;99700.59;4973511;28;20495;-90
2023/06/28 21:37:37;;;;;;;;;;;;;;;12.53;100.00;99708.50;4896398;29;19935;-91
2023/06/28 21:40:17;;;;;;;;;;;;;;;12.25;100.00;99697.56;4841091;29;19925;-91
2023/06/28 21:43:12;;;;;;;;;;;;;;;;;;;;;
2023/06/28 21:45:38;;;;;;;;;;;;;;;12.53;100.00;99692.53;4841663;29;19924;-90
2023/06/28 21:54:28;;;;;;;;;;;;;;;12.29;100.00;99701.81;4816365;29;20388;-90
2023/06/28 21:56:55;;;;;;;;;;;;;;;12.31;100.00;99698.13;4901347;28;19926;-88
2023/06/28 21:59:40;;;;;;;;;;;;;;;12.36;100.00;99711.16;4974252;28;19929;-91
2023/06/28 22:02:11;;;;;;;;;;;;;;;12.56;100.00;99706.59;4972154;28;19932;-90
2023/06/28 22:04:36;;;;;;;;;;;;;;;12.40;100.00;99702.09;4957205;28;19961;-88
2023/06/28 22:07:32;;;;;;;;;;;;;;;;;;;;;
2023/06/28 22:11:06;;;;;;;;;;;;;;;12.42;100.00;99708.19;4975016;28;20021;-93
2023/06/28 22:13:15;;;;;;;;;;;;;;;12.46;100.00;99706.22;4960448;28;20321;-90
2023/06/28 22:15:49;;;;;;;;;;;;;;;12.41;100.00;99709.13;4974681;28;19926;-90
2023/06/28 22:18:17;;;;;;;;;;;;;;;12.44;100.00;99714.28;4974047;28;20061;-88
2023/06/28 22:20:42;;;;;;;;;;;;;;;12.49;100.00;99709.59;4974217;28;20020;-90
2023/06/28 22:23:07;;;;;;;;;;;;;;;12.44;100.00;99708.97;4974831;28;20014;-89
2023/06/28 22:25:49;;;;;;;;;;;;;;;12.43;100.00;99711.69;4973583;28;19918;-89
2023/06/28 22:28:15;;;;;;;;;;;;;;;12.47;100.00;99707.97;4975025;28;19922;-86
2023/06/28 22:30:40;;;;;;;;;;;;;;;12.45;100.00;99700.06;4956961;28;19949;-87
2023/06/28 22:33:05;;;;;;;;;;;;;;;12.45;100.00;99708.03;4973651;28;19929;-86
2023/06/28 22:35:30;;;;;;;;;;;;;;;12.47;100.00;99702.66;4974461;28;19973;-86
2023/06/28 22:37:56;;;;;;;;;;;;;;;12.40;100.00;99706.53;4957145;28;20297;-88
2023/06/28 22:40:25;;;;;;;;;;;;;;;12.43;100.00;99693.09;4974499;28;19969;-88
2023/06/28 22:42:50;;;;;;;;;;;;;;;12.59;100.00;99696.69;4974618;28;19918;-87
2023/06/28 22:45:15;;;;;;;;;;;;;;;12.45;100.00;99707.19;4957533;28;19922;-87
2023/06/28 22:47:41;;;;;;;;;;;;;;;12.43;100.00;99704.59;4973168;28;19992;-92
2023/06/28 22:50:06;;;;;;;;;;;;;;;12.50;100.00;99713.97;4957242;28;19970;-88
2023/06/28 22:52:32;;;;;;;;;;;;;;;12.60;100.00;99705.53;4974461;28;19922;-88
2023/06/28 22:54:59;;;;;;;;;;;;;;;12.41;100.00;99706.47;4974911;28;20000;-88
2023/06/28 22:57:37;;;;;;;;;;;;;;;;;;;;;
2023/06/28 23:00:04;;;;;;;;;;;;;;;12.36;100.00;99700.53;4974190;28;19918;-88
2023/06/28 23:02:32;;;;;;;;;;;;;;;12.37;100.00;99702.25;4955925;28;19922;-89
2023/06/28 23:05:02;;;;;;;;;;;;;;;12.32;100.00;99705.16;4972337;28;19922;-90
2023/06/28 23:07:37;;;;;;;;;;;;;;;12.32;100.00;99697.19;4974153;28;20385;-90
2023/06/28 23:10:03;;;;;;;;;;;;;;;12.36;100.00;99697.88;4973994;28;20301;-90
2023/06/28 23:12:39;;;;;;;;;;;;;;;12.33;100.00;99690.06;4974245;28;19922;-93
2023/06/28 23:15:09;;;;;;;;;;;;;;;12.38;100.00;99695.13;4974059;28;19973;-93
2023/06/28 23:17:39;;;;;;;;;;;;;;;12.38;100.00;99692.47;4972816;28;19969;-92
2023/06/28 23:20:32;;;;;;;;;;;;;;;12.38;100.00;99688.06;5090533;27;20433;-96
